Time;durP1;ratioP1;P1;durP2;ratioP2;P2;SDS_P1;SDS_P2;PMS_P1;PMS_P2;Temp;Humidity;BMP_temperature;BMP_pressure;BME280_temperature;BME280_humidity;BME280_pressure;Samples;Min_cycle;Max_cycle;Signal;HPM_P1;HPM_P2
2023/01/20 00:01:00;;;;;;;8.23;5.17;;;;;;;;;;5013186;28;20552;-87
2023/01/20 00:04:05;;;;;;;9.90;5.80;;;;;;;;;;5024734;28;20560;-87
2023/01/20 00:07:09;;;;;;;7.57;5.57;;;;;;;;;;5013759;28;20544;-87
2023/01/20 00:10:13;;;;;;;7.27;5.30;;;;;;;;;;5013605;28;20551;-87
2023/01/20 00:13:17;;;;;;;9.60;5.77;;;;;;;;;;5000670;28;20619;-87
2023/01/20 00:16:22;;;;;;;8.97;5.77;;;;;;;;;;5013506;28;20556;-87
2023/01/20 00:19:26;;;;;;;10.43;6.17;;;;;;;;;;5015670;28;20555;-87
2023/01/20 00:22:31;;;;;;;10.50;6.70;;;;;;;;;;5016024;28;20618;-87
2023/01/20 00:25:35;;;;;;;13.10;7.17;;;;;;;;;;5013344;28;20722;-87
2023/01/20 00:28:39;;;;;;;10.60;6.10;;;;;;;;;;5011543;28;20583;-88
2023/01/20 00:31:43;;;;;;;12.07;7.00;;;;;;;;;;5011384;28;20662;-87
2023/01/20 00:34:48;;;;;;;11.67;6.60;;;;;;;;;;5000465;28;20548;-87
2023/01/20 00:37:52;;;;;;;8.77;5.90;;;;;;;;;;5012028;28;21094;-87
2023/01/20 00:40:56;;;;;;;8.50;6.03;;;;;;;;;;5022611;28;20556;-87
2023/01/20 00:44:00;;;;;;;11.53;7.53;;;;;;;;;;5011265;28;20610;-87
2023/01/20 00:47:04;;;;;;;14.77;7.37;;;;;;;;;;5011579;28;20576;-87
2023/01/20 00:50:09;;;;;;;11.47;7.37;;;;;;;;;;5023484;28;20548;-89
2023/01/20 00:53:13;;;;;;;9.97;6.20;;;;;;;;;;5002088;28;20663;-89
2023/01/20 00:56:18;;;;;;;10.10;6.30;;;;;;;;;;5001201;28;20547;-89
2023/01/20 00:59:22;;;;;;;9.83;6.17;;;;;;;;;;5012027;28;20552;-89
2023/01/20 01:02:26;;;;;;;9.93;6.80;;;;;;;;;;5011163;28;20615;-89
2023/01/20 01:05:31;;;;;;;11.70;6.43;;;;;;;;;;5022295;28;20544;-89
2023/01/20 01:08:35;;;;;;;9.33;6.07;;;;;;;;;;5011004;28;20560;-89
2023/01/20 01:11:39;;;;;;;8.87;5.67;;;;;;;;;;5010506;28;20650;-89
2023/01/20 01:14:44;;;;;;;10.13;5.73;;;;;;;;;;5010680;28;20555;-87
2023/01/20 01:17:48;;;;;;;8.70;5.60;;;;;;;;;;5011157;28;20548;-89
2023/01/20 01:20:52;;;;;;;9.83;6.37;;;;;;;;;;5011012;28;20552;-89
2023/01/20 01:23:56;;;;;;;9.97;6.23;;;;;;;;;;5010985;28;20551;-89
2023/01/20 01:27:00;;;;;;;8.47;6.10;;;;;;;;;;5014383;28;20556;-89
2023/01/20 01:30:05;;;;;;;8.57;6.20;;;;;;;;;;5014523;28;21121;-89
2023/01/20 01:33:09;;;;;;;11.33;6.03;;;;;;;;;;5025313;28;20650;-89
2023/01/20 01:36:15;;;;;;;10.87;6.47;;;;;;;;;;5014199;28;20602;-89
2023/01/20 01:39:19;;;;;;;9.00;6.20;;;;;;;;;;5014571;28;21094;-89
2023/01/20 01:42:25;;;;;;;8.93;5.53;;;;;;;;;;5014197;28;20619;-89
2023/01/20 01:45:29;;;;;;;10.57;6.00;;;;;;;;;;5014262;28;20603;-89
2023/01/20 01:48:42;;;;;;;9.00;6.20;;;;;;;;;;5014142;28;20552;-89
2023/01/20 01:51:55;;;;;;;8.53;5.93;;;;;;;;;;5003396;28;20647;-89
2023/01/20 01:55:01;;;;;;;11.10;5.93;;;;;;;;;;5013949;28;20599;-89
2023/01/20 01:58:07;;;;;;;9.37;6.20;;;;;;;;;;5025355;28;20548;-89
2023/01/20 02:01:11;;;;;;;9.73;6.23;;;;;;;;;;5025428;28;20548;-88
2023/01/20 02:04:22;;;;;;;9.77;6.03;;;;;;;;;;5013851;28;20547;-89
2023/01/20 02:07:27;;;;;;;9.20;6.50;;;;;;;;;;5002868;28;20556;-89
2023/01/20 02:10:31;;;;;;;10.10;6.30;;;;;;;;;;5025333;28;20552;-89
2023/01/20 02:13:35;;;;;;;11.20;6.17;;;;;;;;;;5024715;28;21197;-89
2023/01/20 02:17:13;;;;;;;8.13;5.83;;;;;;;;;;5013380;28;20558;-89
2023/01/20 02:20:49;;;;;;;10.33;6.10;;;;;;;;;;5002505;28;20533;-89
2023/01/20 02:24:13;;;;;;;10.43;6.63;;;;;;;;;;5013460;28;20910;-89
2023/01/20 02:27:42;;;;;;;9.00;6.30;;;;;;;;;;5024075;28;20552;-89
2023/01/20 02:31:20;;;;;;;9.47;6.07;;;;;;;;;;5002073;28;20547;-89
2023/01/20 02:34:30;;;;;;;13.73;6.70;;;;;;;;;;5001665;28;20544;-89
2023/01/20 02:37:46;;;;;;;8.83;6.13;;;;;;;;;;5012230;28;20552;-89
2023/01/20 02:41:14;;;;;;;10.10;6.47;;;;;;;;;;5024361;28;20552;-89
2023/01/20 02:44:33;;;;;;;10.87;6.27;;;;;;;;;;5023605;28;20947;-89
2023/01/20 02:48:00;;;;;;;9.23;5.77;;;;;;;;;;5013031;28;20549;-89
2023/01/20 02:51:11;;;;;;;10.80;6.20;;;;;;;;;;5024291;28;20540;-88
2023/01/20 02:54:19;;;;;;;9.93;6.40;;;;;;;;;;5001772;28;20548;-88
2023/01/20 02:57:31;;;;;;;9.33;5.70;;;;;;;;;;5013062;28;21106;-89
2023/01/20 03:00:43;;;;;;;8.53;6.00;;;;;;;;;;5012688;28;20560;-89
2023/01/20 03:03:53;;;;;;;7.77;5.57;;;;;;;;;;5001194;28;20548;-89
2023/01/20 03:06:58;;;;;;;11.33;6.40;;;;;;;;;;5012461;28;20552;-89
2023/01/20 03:10:07;;;;;;;8.80;5.60;;;;;;;;;;5034722;28;20928;-89
2023/01/20 03:13:18;;;;;;;10.40;6.60;;;;;;;;;;5023264;28;20651;-89
2023/01/20 03:16:24;;;;;;;7.73;5.10;;;;;;;;;;5012180;28;21138;-89
2023/01/20 03:19:29;;;;;;;10.53;5.67;;;;;;;;;;5001361;28;20892;-89
2023/01/20 03:22:32;;;;;;;14.67;5.67;;;;;;;;;;5013208;28;20615;-89
2023/01/20 03:25:38;;;;;;;8.90;6.50;;;;;;;;;;5012059;28;20897;-89
2023/01/20 03:28:43;;;;;;;11.00;6.17;;;;;;;;;;5000732;28;21106;-89
2023/01/20 03:31:53;;;;;;;9.47;5.80;;;;;;;;;;5011805;28;21000;-89
2023/01/20 03:34:58;;;;;;;10.10;6.43;;;;;;;;;;5012003;28;20556;-88
2023/01/20 03:38:02;;;;;;;9.77;6.07;;;;;;;;;;5011690;28;20552;-89
2023/01/20 03:41:21;;;;;;;7.57;5.83;;;;;;;;;;5011389;28;20548;-89
2023/01/20 03:44:53;;;;;;;9.37;6.27;;;;;;;;;;5000360;28;20608;-89
2023/01/20 03:48:18;;;;;;;10.87;6.57;;;;;;;;;;5011554;28;20544;-89
2023/01/20 03:52:03;;;;;;;8.30;6.30;;;;;;;;;;5011176;28;20632;-89
2023/01/20 03:55:36;;;;;;;7.63;5.20;;;;;;;;;;5022403;28;21110;-89
2023/01/20 03:58:44;;;;;;;11.27;6.37;;;;;;;;;;4999726;28;21118;-89
2023/01/20 04:01:48;;;;;;;8.20;5.77;;;;;;;;;;5010880;28;21177;-88
2023/01/20 04:04:53;;;;;;;9.73;6.47;;;;;;;;;;5022863;28;20556;-89
2023/01/20 04:08:02;;;;;;;12.87;6.63;;;;;;;;;;5015575;28;20932;-88
2023/01/20 04:11:07;;;;;;;9.97;6.60;;;;;;;;;;5016509;28;20595;-87
2023/01/20 04:14:11;;;;;;;8.50;6.37;;;;;;;;;;5014289;28;20600;-89
2023/01/20 04:17:15;;;;;;;9.77;6.67;;;;;;;;;;4999673;28;21107;-89
2023/01/20 04:20:19;;;;;;;12.53;7.40;;;;;;;;;;5010634;28;20536;-89
2023/01/20 04:23:30;;;;;;;9.47;5.77;;;;;;;;;;5011320;28;20548;-87
2023/01/20 04:26:34;;;;;;;9.13;6.17;;;;;;;;;;5011413;28;21153;-87
2023/01/20 04:29:40;;;;;;;9.57;6.53;;;;;;;;;;5014316;28;20551;-88
2023/01/20 04:32:44;;;;;;;12.87;6.13;;;;;;;;;;5022513;28;20651;-87
2023/01/20 04:35:48;;;;;;;8.83;6.30;;;;;;;;;;5000187;28;20922;-87
2023/01/20 04:38:52;;;;;;;11.97;6.67;;;;;;;;;;5000419;28;20599;-87
2023/01/20 04:41:56;;;;;;;10.13;6.43;;;;;;;;;;5000911;28;21201;-87
2023/01/20 04:45:00;;;;;;;9.90;7.07;;;;;;;;;;4999992;28;21176;-87
2023/01/20 04:48:06;;;;;;;9.37;6.37;;;;;;;;;;5011464;28;20896;-87
2023/01/20 04:51:10;;;;;;;10.03;6.57;;;;;;;;;;5000486;28;20548;-87
2023/01/20 04:54:15;;;;;;;11.63;7.07;;;;;;;;;;5022309;28;20956;-87
2023/01/20 04:57:19;;;;;;;10.50;7.03;;;;;;;;;;5000219;28;21087;-87
2023/01/20 05:00:23;;;;;;;11.17;7.30;;;;;;;;;;5002489;28;20568;-87
2023/01/20 05:03:27;;;;;;;10.83;7.50;;;;;;;;;;5038364;28;20905;-87
2023/01/20 05:06:31;;;;;;;10.83;6.97;;;;;;;;;;5015168;28;20555;-87
2023/01/20 05:09:36;;;;;;;13.40;7.90;;;;;;;;;;5038738;28;20544;-87
2023/01/20 05:12:40;;;;;;;11.53;7.30;;;;;;;;;;5014443;28;20651;-87
2023/01/20 05:15:44;;;;;;;12.07;7.20;;;;;;;;;;5026261;28;20599;-87
2023/01/20 05:18:49;;;;;;;10.70;6.80;;;;;;;;;;5003603;28;20552;-87
2023/01/20 05:21:53;;;;;;;12.67;7.17;;;;;;;;;;5036933;28;21046;-87
2023/01/20 05:24:57;;;;;;;12.40;7.70;;;;;;;;;;5026267;28;20612;-87
2023/01/20 05:28:02;;;;;;;12.23;7.93;;;;;;;;;;5014632;28;20547;-87
2023/01/20 05:31:06;;;;;;;12.77;8.03;;;;;;;;;;5014469;28;20551;-87
2023/01/20 05:34:10;;;;;;;10.13;7.33;;;;;;;;;;5014395;28;20595;-86
2023/01/20 05:37:16;;;;;;;12.40;7.70;;;;;;;;;;5026683;28;20547;-86
2023/01/20 05:40:20;;;;;;;13.03;8.00;;;;;;;;;;5015477;28;20595;-87
2023/01/20 05:43:25;;;;;;;12.50;8.37;;;;;;;;;;5014064;28;20584;-87
2023/01/20 05:46:29;;;;;;;12.63;8.33;;;;;;;;;;5025105;28;20807;-87
2023/01/20 05:49:34;;;;;;;13.57;8.07;;;;;;;;;;5002757;28;20551;-87
2023/01/20 05:52:38;;;;;;;12.03;7.80;;;;;;;;;;5014179;28;20610;-88
2023/01/20 05:55:42;;;;;;;13.17;8.13;;;;;;;;;;5018033;28;20902;-88
2023/01/20 05:58:46;;;;;;;11.80;7.87;;;;;;;;;;5017706;28;20555;-87
2023/01/20 06:01:50;;;;;;;15.97;9.00;;;;;;;;;;5017826;28;20631;-88
2023/01/20 06:04:54;;;;;;;16.87;10.97;;;;;;;;;;5017064;28;20551;-88
2023/01/20 06:07:59;;;;;;;17.37;10.37;;;;;;;;;;5017113;28;20555;-88
2023/01/20 06:11:03;;;;;;;16.00;9.70;;;;;;;;;;5027535;28;20563;-88
2023/01/20 06:14:07;;;;;;;17.23;10.30;;;;;;;;;;5017604;28;20611;-88
2023/01/20 06:17:11;;;;;;;13.77;9.20;;;;;;;;;;5028329;28;20559;-88
2023/01/20 06:20:15;;;;;;;11.43;8.13;;;;;;;;;;5028819;28;20547;-88
2023/01/20 06:23:20;;;;;;;11.57;8.30;;;;;;;;;;5017078;28;20631;-88
2023/01/20 06:26:24;;;;;;;13.17;9.47;;;;;;;;;;5005274;28;20591;-88
2023/01/20 06:29:29;;;;;;;14.07;8.40;;;;;;;;;;5017382;28;20563;-88
2023/01/20 06:32:34;;;;;;;14.10;9.47;;;;;;;;;;5015863;28;20627;-88
2023/01/20 06:35:38;;;;;;;15.13;8.83;;;;;;;;;;5026957;28;21107;-88
2023/01/20 06:38:47;;;;;;;12.20;8.37;;;;;;;;;;5027210;28;20552;-88
2023/01/20 06:41:51;;;;;;;12.60;7.53;;;;;;;;;;5026505;28;20619;-88
2023/01/20 06:44:55;;;;;;;13.90;9.30;;;;;;;;;;5015505;28;20603;-89
2023/01/20 06:47:59;;;;;;;15.07;9.03;;;;;;;;;;5027365;28;21107;-88
2023/01/20 06:51:06;;;;;;;16.37;9.90;;;;;;;;;;5014935;28;21087;-88
2023/01/20 06:54:10;;;;;;;17.83;10.03;;;;;;;;;;5015065;28;20592;-88
2023/01/20 06:57:14;;;;;;;14.60;9.77;;;;;;;;;;5015133;28;20563;-87
2023/01/20 07:00:19;;;;;;;16.50;10.27;;;;;;;;;;5011990;28;20785;-87
2023/01/20 07:03:23;;;;;;;14.80;9.33;;;;;;;;;;5001463;28;20555;-87
2023/01/20 07:06:34;;;;;;;16.23;10.13;;;;;;;;;;5012693;28;20556;-87
2023/01/20 07:09:38;;;;;;;12.17;8.87;;;;;;;;;;5035587;28;20559;-87
2023/01/20 07:12:42;;;;;;;15.00;9.47;;;;;;;;;;5000429;28;20611;-87
2023/01/20 07:15:46;;;;;;;14.97;10.07;;;;;;;;;;5022989;28;20536;-87
2023/01/20 07:18:51;;;;;;;15.63;10.03;;;;;;;;;;5011799;28;20595;-87
2023/01/20 07:21:55;;;;;;;14.23;9.73;;;;;;;;;;5011127;28;20641;-87
2023/01/20 07:24:59;;;;;;;16.73;10.40;;;;;;;;;;4999958;28;20591;-87
2023/01/20 07:28:04;;;;;;;40.37;25.47;;;;;;;;;;4999786;28;20598;-87
2023/01/20 07:31:25;;;;;;;30.97;20.60;;;;;;;;;;5011503;28;20606;-87
2023/01/20 07:34:30;;;;;;;19.33;12.97;;;;;;;;;;5022672;28;20615;-87
2023/01/20 07:37:34;;;;;;;16.63;12.30;;;;;;;;;;5011320;28;20563;-86
2023/01/20 07:40:38;;;;;;;16.83;12.23;;;;;;;;;;5011247;28;20610;-87
2023/01/20 07:43:43;;;;;;;18.00;12.43;;;;;;;;;;5010982;28;20606;-87
2023/01/20 07:46:50;;;;;;;18.17;12.77;;;;;;;;;;5022274;28;20563;-87
2023/01/20 07:49:54;;;;;;;17.73;12.70;;;;;;;;;;5011594;28;20559;-87
2023/01/20 07:52:58;;;;;;;19.50;13.50;;;;;;;;;;5010982;28;20633;-87
2023/01/20 07:56:04;;;;;;;18.37;12.33;;;;;;;;;;5011362;28;20551;-87
2023/01/20 07:59:09;;;;;;;21.80;12.00;;;;;;;;;;5012422;28;20556;-87
2023/01/20 08:02:13;;;;;;;18.23;12.90;;;;;;;;;;5012241;28;20638;-89
2023/01/20 08:05:18;;;;;;;21.30;12.80;;;;;;;;;;5023174;28;20583;-89
2023/01/20 08:08:22;;;;;;;17.27;11.77;;;;;;;;;;5010760;28;20614;-90
2023/01/20 08:11:26;;;;;;;19.60;12.37;;;;;;;;;;5022140;28;20635;-89
2023/01/20 08:14:30;;;;;;;20.90;12.23;;;;;;;;;;5022652;28;20608;-90
2023/01/20 08:17:37;;;;;;;26.77;16.97;;;;;;;;;;5000026;28;20562;-90
2023/01/20 08:20:42;;;;;;;18.63;11.10;;;;;;;;;;5000140;28;20548;-91
2023/01/20 08:23:46;;;;;;;15.30;10.87;;;;;;;;;;5022530;28;20543;-88
2023/01/20 08:26:50;;;;;;;18.87;12.37;;;;;;;;;;5021901;28;20544;-87
2023/01/20 08:29:54;;;;;;;16.07;12.03;;;;;;;;;;5010416;28;20555;-87
2023/01/20 08:32:58;;;;;;;100.70;52.20;;;;;;;;;;5010429;28;20626;-87
2023/01/20 08:36:15;;;;;;;56.67;30.80;;;;;;;;;;5025082;28;20552;-87
2023/01/20 08:39:21;;;;;;;18.13;12.97;;;;;;;;;;5014802;28;20548;-88
2023/01/20 08:42:25;;;;;;;18.37;12.30;;;;;;;;;;5025894;28;20614;-87
2023/01/20 08:45:29;;;;;;;18.87;13.10;;;;;;;;;;5014507;28;20611;-87
2023/01/20 08:48:35;;;;;;;20.83;13.77;;;;;;;;;;5025836;28;20566;-87
2023/01/20 08:51:40;;;;;;;21.60;12.90;;;;;;;;;;5014545;28;20623;-88
2023/01/20 08:54:45;;;;;;;18.07;13.47;;;;;;;;;;5029429;28;20623;-87
2023/01/20 08:57:48;;;;;;;28.60;17.00;;;;;;;;;;5015471;28;20559;-88
2023/01/20 09:00:54;;;;;;;25.07;15.60;;;;;;;;;;5020943;28;20595;-88
2023/01/20 09:03:58;;;;;;;19.47;14.40;;;;;;;;;;5023108;28;20552;-87
2023/01/20 09:07:04;;;;;;;18.73;14.20;;;;;;;;;;5034146;28;21118;-88
2023/01/20 09:10:09;;;;;;;21.97;14.40;;;;;;;;;;5011790;28;20562;-87
2023/01/20 09:13:13;;;;;;;39.80;22.73;;;;;;;;;;5015827;28;20619;-88
2023/01/20 09:16:18;;;;;;;25.83;17.90;;;;;;;;;;5034737;28;20545;-89
2023/01/20 09:19:22;;;;;;;32.90;23.43;;;;;;;;;;5010129;28;20548;-88
2023/01/20 09:22:26;;;;;;;19.93;14.30;;;;;;;;;;5013209;28;20619;-88
2023/01/20 09:25:30;;;;;;;20.90;15.23;;;;;;;;;;5036735;28;20544;-88
2023/01/20 09:28:35;;;;;;;22.30;15.57;;;;;;;;;;5012855;28;20552;-88
2023/01/20 09:31:42;;;;;;;23.57;16.33;;;;;;;;;;5032079;28;20619;-88
2023/01/20 09:34:46;;;;;;;23.07;15.60;;;;;;;;;;5015194;28;20611;-88
2023/01/20 09:44:52;;;;;;;28.60;16.47;;;;;;;;;;5014675;28;20598;-88
2023/01/20 09:55:48;;;;;;;128.83;90.03;;;;;;;;;;5014704;28;20614;-88
2023/01/20 09:59:05;;;;;;;40.63;26.83;;;;;;;;;;5025254;28;20621;-88
2023/01/20 10:02:20;;;;;;;32.43;21.97;;;;;;;;;;5025671;28;20998;-88
2023/01/20 10:05:31;;;;;;;27.10;18.57;;;;;;;;;;5013835;28;20544;-88
2023/01/20 10:08:44;;;;;;;24.93;17.57;;;;;;;;;;5002689;28;20964;-88
2023/01/20 10:11:52;;;;;;;29.07;21.53;;;;;;;;;;5003276;28;20627;-86
2023/01/20 10:15:12;;;;;;;26.53;19.77;;;;;;;;;;5013710;28;21217;-87
2023/01/20 10:18:24;;;;;;;44.40;32.03;;;;;;;;;;5024898;28;20544;-87
2023/01/20 10:22:08;;;;;;;25.17;18.00;;;;;;;;;;5013677;28;20628;-86
2023/01/20 10:25:27;;;;;;;23.30;14.43;;;;;;;;;;5013459;28;20540;-86
2023/01/20 10:28:36;;;;;;;20.27;14.13;;;;;;;;;;5024957;28;21102;-86
2023/01/20 10:31:57;;;;;;;21.17;15.17;;;;;;;;;;5013271;28;20614;-86
2023/01/20 10:35:16;;;;;;;22.53;14.50;;;;;;;;;;5020002;28;20607;-87
2023/01/20 10:38:51;;;;;;;21.43;15.30;;;;;;;;;;5020857;28;20552;-86
2023/01/20 10:42:02;;;;;;;21.30;15.10;;;;;;;;;;5019473;28;21005;-87
2023/01/20 10:45:25;;;;;;;20.20;15.67;;;;;;;;;;5019031;28;21178;-86
2023/01/20 10:48:45;;;;;;;21.67;15.43;;;;;;;;;;5020059;28;20560;-87
2023/01/20 10:51:58;;;;;;;21.87;15.73;;;;;;;;;;5031521;28;20623;-86
2023/01/20 10:55:43;;;;;;;24.97;16.73;;;;;;;;;;5009471;28;20612;-86
2023/01/20 10:58:47;;;;;;;41.10;27.23;;;;;;;;;;5009446;28;20552;-86
2023/01/20 11:01:54;;;;;;;28.27;21.17;;;;;;;;;;5022259;28;20619;-86
2023/01/20 11:05:15;;;;;;;21.03;16.90;;;;;;;;;;5023133;28;20582;-86
2023/01/20 11:08:26;;;;;;;21.27;15.90;;;;;;;;;;5022635;28;20552;-87
2023/01/20 11:11:30;;;;;;;22.20;15.13;;;;;;;;;;5022819;28;21034;-87
2023/01/20 11:14:35;;;;;;;24.80;15.83;;;;;;;;;;5011602;28;20607;-87
2023/01/20 11:17:40;;;;;;;22.63;16.83;;;;;;;;;;5023100;28;20556;-87
2023/01/20 11:20:58;;;;;;;25.17;16.57;;;;;;;;;;5023389;28;20547;-87
2023/01/20 11:24:27;;;;;;;26.37;19.40;;;;;;;;;;5010755;28;20552;-87
2023/01/20 11:27:44;;;;;;;22.70;16.80;;;;;;;;;;5010266;28;20548;-86
2023/01/20 11:30:51;;;;;;;23.23;17.93;;;;;;;;;;5011601;28;21103;-87
2023/01/20 11:34:01;;;;;;;27.00;16.93;;;;;;;;;;5022430;28;20556;-87
2023/01/20 11:37:05;;;;;;;22.83;16.17;;;;;;;;;;5010243;28;21122;-87
2023/01/20 11:40:24;;;;;;;23.73;17.10;;;;;;;;;;5022429;28;20552;-87
2023/01/20 11:43:32;;;;;;;24.13;16.50;;;;;;;;;;5011462;28;20583;-88
2023/01/20 11:46:37;;;;;;;22.20;15.93;;;;;;;;;;5023495;28;20548;-88
2023/01/20 11:49:41;;;;;;;23.70;16.27;;;;;;;;;;5023327;28;21144;-88
2023/01/20 11:52:46;;;;;;;22.27;16.23;;;;;;;;;;5000070;28;20618;-89
2023/01/20 11:55:55;;;;;;;24.77;16.83;;;;;;;;;;5011603;28;20608;-89
2023/01/20 11:59:03;;;;;;;22.87;16.87;;;;;;;;;;5011338;28;20595;-88
2023/01/20 12:02:07;;;;;;;23.10;17.03;;;;;;;;;;5000115;28;20619;-89
2023/01/20 12:05:22;;;;;;;23.77;17.50;;;;;;;;;;5010999;28;21145;-89
2023/01/20 12:08:32;;;;;;;26.30;17.37;;;;;;;;;;5023053;28;20552;-89
2023/01/20 12:11:50;;;;;;;28.23;19.07;;;;;;;;;;5011370;28;20615;-89
2023/01/20 12:15:14;;;;;;;23.33;16.33;;;;;;;;;;5011374;28;20639;-89
2023/01/20 12:18:27;;;;;;;23.03;16.73;;;;;;;;;;5022580;28;20552;-89
2023/01/20 12:21:41;;;;;;;26.83;18.77;;;;;;;;;;5022447;28;20626;-89
2023/01/20 12:25:07;;;;;;;28.10;20.10;;;;;;;;;;5011502;28;20544;-89
2023/01/20 12:28:17;;;;;;;25.63;18.17;;;;;;;;;;5000434;28;20560;-89
2023/01/20 12:31:24;;;;;;;25.37;17.60;;;;;;;;;;5000572;28;20623;-89
2023/01/20 12:34:30;;;;;;;22.63;17.10;;;;;;;;;;5011616;28;20556;-88
2023/01/20 12:38:04;;;;;;;26.83;17.37;;;;;;;;;;5023011;28;20556;-89
2023/01/20 12:41:20;;;;;;;25.80;18.40;;;;;;;;;;5000054;28;20556;-89
2023/01/20 12:44:44;;;;;;;37.77;22.07;;;;;;;;;;5011197;28;20608;-89
2023/01/20 12:47:53;;;;;;;28.07;18.33;;;;;;;;;;5000050;28;20560;-89
2023/01/20 12:51:17;;;;;;;28.07;19.20;;;;;;;;;;5000138;28;20560;-88
2023/01/20 12:54:39;;;;;;;55.00;34.57;;;;;;;;;;5011152;28;20548;-89
2023/01/20 12:58:08;;;;;;;35.87;25.90;;;;;;;;;;5000321;28;20552;-89
2023/01/20 13:01:52;;;;;;;36.17;24.60;;;;;;;;;;5011126;28;20548;-89
2023/01/20 13:05:23;;;;;;;30.57;21.50;;;;;;;;;;5011431;28;20556;-90
2023/01/20 13:08:48;;;;;;;28.27;18.93;;;;;;;;;;5006507;28;20611;-89
2023/01/20 13:12:08;;;;;;;31.37;20.37;;;;;;;;;;4999062;28;20624;-89
2023/01/20 13:15:31;;;;;;;84.50;58.07;;;;;;;;;;4999256;28;20611;-89
2023/01/20 13:19:05;;;;;;;30.87;22.20;;;;;;;;;;5010150;28;20548;-89
2023/01/20 13:22:19;;;;;;;27.93;17.93;;;;;;;;;;5036343;28;20632;-87
2023/01/20 13:25:23;;;;;;;27.93;19.53;;;;;;;;;;5003186;28;20544;-86
2023/01/20 13:28:29;;;;;;;27.10;18.57;;;;;;;;;;5025405;28;20556;-87
2023/01/20 13:31:36;;;;;;;29.60;19.30;;;;;;;;;;5025945;28;20635;-87
2023/01/20 13:34:40;;;;;;;55.37;34.17;;;;;;;;;;5014243;28;20591;-87
2023/01/20 13:37:48;;;;;;;32.10;21.13;;;;;;;;;;5014865;28;20595;-87
2023/01/20 13:41:04;;;;;;;35.37;22.13;;;;;;;;;;5014772;28;20552;-87
2023/01/20 13:44:34;;;;;;;30.43;19.87;;;;;;;;;;5013768;28;20611;-89
2023/01/20 13:47:57;;;;;;;27.97;18.57;;;;;;;;;;5013505;28;20548;-89
2023/01/20 13:51:26;;;;;;;31.30;19.93;;;;;;;;;;5013306;28;20533;-88
2023/01/20 13:54:50;;;;;;;27.03;17.87;;;;;;;;;;5013509;28;20547;-87
2023/01/20 13:57:54;;;;;;;31.23;19.60;;;;;;;;;;5024747;28;20632;-87
2023/01/20 14:01:05;;;;;;;31.40;19.63;;;;;;;;;;5025110;28;20547;-87
2023/01/20 14:04:17;;;;;;;27.80;18.93;;;;;;;;;;5013149;28;20547;-86
2023/01/20 14:07:26;;;;;;;30.63;18.77;;;;;;;;;;5024736;28;20552;-87
2023/01/20 14:10:30;;;;;;;28.20;18.93;;;;;;;;;;5013449;28;20560;-89
2023/01/20 14:13:34;;;;;;;37.07;21.87;;;;;;;;;;5013091;28;20559;-89
2023/01/20 14:16:40;;;;;;;34.53;20.63;;;;;;;;;;5023921;28;20603;-89
2023/01/20 14:19:54;;;;;;;28.77;18.27;;;;;;;;;;5001665;28;20552;-89
2023/01/20 14:23:29;;;;;;;28.43;17.97;;;;;;;;;;5001604;28;21216;-89
2023/01/20 14:26:32;;;;;;;27.60;17.63;;;;;;;;;;5023749;28;20540;-89
2023/01/20 14:29:37;;;;;;;25.93;16.37;;;;;;;;;;5025142;28;20591;-87
2023/01/20 14:32:41;;;;;;;27.23;16.67;;;;;;;;;;5013057;28;20967;-87
2023/01/20 14:35:45;;;;;;;27.70;17.03;;;;;;;;;;5014390;28;20607;-88
2023/01/20 14:38:55;;;;;;;24.47;15.57;;;;;;;;;;5013588;28;20552;-88
2023/01/20 14:42:00;;;;;;;24.77;15.80;;;;;;;;;;5002074;28;20615;-88
2023/01/20 14:45:22;;;;;;;28.67;17.33;;;;;;;;;;5001688;28;20603;-88
2023/01/20 14:48:26;;;;;;;26.00;16.90;;;;;;;;;;5014350;28;20552;-88
2023/01/20 14:51:32;;;;;;;23.53;15.00;;;;;;;;;;5025159;28;20631;-88
2023/01/20 14:54:44;;;;;;;24.60;16.87;;;;;;;;;;5002306;28;20556;-88
2023/01/20 14:57:48;;;;;;;27.77;18.60;;;;;;;;;;5024801;28;20908;-88
2023/01/20 15:00:59;;;;;;;25.90;17.43;;;;;;;;;;5013385;28;20615;-88
2023/01/20 15:04:04;;;;;;;26.80;19.43;;;;;;;;;;5013253;28;20555;-88
2023/01/20 15:07:18;;;;;;;28.70;17.53;;;;;;;;;;5002075;28;20544;-88
2023/01/20 15:10:22;;;;;;;22.93;14.97;;;;;;;;;;5013170;28;20702;-88
2023/01/20 15:13:29;;;;;;;25.30;15.83;;;;;;;;;;5001240;28;20615;-89
2023/01/20 15:16:45;;;;;;;25.23;15.80;;;;;;;;;;5012276;28;21238;-89
2023/01/20 15:19:49;;;;;;;26.80;16.97;;;;;;;;;;5012325;28;21095;-88
2023/01/20 15:22:53;;;;;;;28.43;17.77;;;;;;;;;;5022614;28;20622;-88
2023/01/20 15:26:21;;;;;;;24.50;16.53;;;;;;;;;;5000731;28;20603;-88
2023/01/20 15:29:30;;;;;;;25.23;17.13;;;;;;;;;;5011716;28;20547;-88
2023/01/20 15:32:34;;;;;;;29.90;17.37;;;;;;;;;;5011050;28;20623;-88
2023/01/20 15:35:38;;;;;;;28.40;18.27;;;;;;;;;;5000632;28;20607;-88
2023/01/20 15:38:42;;;;;;;28.73;18.10;;;;;;;;;;5023499;28;20556;-88
2023/01/20 15:41:47;;;;;;;27.97;17.73;;;;;;;;;;5000248;28;21196;-88
2023/01/20 15:44:51;;;;;;;29.33;16.87;;;;;;;;;;5010962;28;21184;-88
2023/01/20 15:47:56;;;;;;;26.07;17.23;;;;;;;;;;5022407;28;20583;-88
2023/01/20 15:51:00;;;;;;;27.00;17.67;;;;;;;;;;5011253;28;20551;-88
2023/01/20 15:54:06;;;;;;;27.13;17.33;;;;;;;;;;5011594;28;20607;-88
2023/01/20 15:57:15;;;;;;;26.97;16.57;;;;;;;;;;5011184;28;20604;-88
2023/01/20 16:00:21;;;;;;;27.93;17.43;;;;;;;;;;5023088;28;20588;-88
2023/01/20 16:03:26;;;;;;;28.73;17.23;;;;;;;;;;5010827;28;20972;-88
2023/01/20 16:06:33;;;;;;;25.13;17.13;;;;;;;;;;5010961;28;20552;-88
2023/01/20 16:09:37;;;;;;;28.03;16.90;;;;;;;;;;5023317;28;20576;-88
2023/01/20 16:12:42;;;;;;;26.43;16.63;;;;;;;;;;5022641;28;20635;-88
2023/01/20 16:15:47;;;;;;;29.30;18.17;;;;;;;;;;4999605;28;20548;-88
2023/01/20 16:18:51;;;;;;;50.57;26.47;;;;;;;;;;5022861;28;20548;-89
2023/01/20 16:21:55;;;;;;;43.07;25.77;;;;;;;;;;5001185;28;20618;-89
2023/01/20 16:25:00;;;;;;;52.67;29.80;;;;;;;;;;5023773;28;20552;-88
2023/01/20 16:28:13;;;;;;;34.07;19.70;;;;;;;;;;5011551;28;20545;-89
2023/01/20 16:31:17;;;;;;;26.77;18.23;;;;;;;;;;5011997;28;20561;-88
2023/01/20 16:34:22;;;;;;;29.43;18.10;;;;;;;;;;5012280;28;20889;-88
2023/01/20 16:37:26;;;;;;;29.37;18.63;;;;;;;;;;5011659;28;20600;-88
2023/01/20 16:40:30;;;;;;;28.13;17.93;;;;;;;;;;5011904;28;20556;-88
2023/01/20 16:43:39;;;;;;;35.37;19.93;;;;;;;;;;5011380;28;20560;-88
2023/01/20 16:46:46;;;;;;;30.80;18.57;;;;;;;;;;5011662;28;20540;-88
2023/01/20 16:49:49;;;;;;;28.67;17.63;;;;;;;;;;5022756;28;20591;-88
2023/01/20 16:52:53;;;;;;;29.93;18.13;;;;;;;;;;5022585;28;20637;-88
2023/01/20 16:55:58;;;;;;;28.60;17.70;;;;;;;;;;5023617;28;20586;-89
2023/01/20 16:59:02;;;;;;;26.90;17.53;;;;;;;;;;5004037;28;20892;-88
2023/01/20 17:02:09;;;;;;;40.20;23.20;;;;;;;;;;5016667;28;20627;-88
2023/01/20 17:05:13;;;;;;;37.80;22.60;;;;;;;;;;5015546;28;21105;-88
2023/01/20 17:08:17;;;;;;;28.90;17.00;;;;;;;;;;5015247;28;20548;-88
2023/01/20 17:11:28;;;;;;;29.20;16.70;;;;;;;;;;5015157;28;20623;-88
2023/01/20 17:14:32;;;;;;;24.87;15.17;;;;;;;;;;5004074;28;20552;-88
2023/01/20 17:17:37;;;;;;;19.97;12.57;;;;;;;;;;5027638;28;20642;-88
2023/01/20 17:20:41;;;;;;;22.57;14.47;;;;;;;;;;5015055;28;20559;-88
2023/01/20 17:23:54;;;;;;;23.10;13.80;;;;;;;;;;5015229;28;20917;-88
2023/01/20 17:26:58;;;;;;;21.23;12.37;;;;;;;;;;5014624;28;20638;-88
2023/01/20 17:30:04;;;;;;;19.20;11.87;;;;;;;;;;5003623;28;20927;-87
2023/01/20 17:33:08;;;;;;;23.27;13.23;;;;;;;;;;5026233;28;20621;-88
2023/01/20 17:36:13;;;;;;;22.93;11.70;;;;;;;;;;5015223;28;20554;-87
2023/01/20 17:39:16;;;;;;;19.67;11.70;;;;;;;;;;5015518;28;21125;-88
2023/01/20 17:42:21;;;;;;;20.97;11.83;;;;;;;;;;5004621;28;20634;-88
2023/01/20 17:45:27;;;;;;;16.57;10.30;;;;;;;;;;5026143;28;21211;-88
2023/01/20 17:48:31;;;;;;;18.57;10.57;;;;;;;;;;5014233;28;20643;-88
2023/01/20 17:51:35;;;;;;;17.60;10.37;;;;;;;;;;5003133;28;20971;-88
2023/01/20 17:54:39;;;;;;;18.33;9.93;;;;;;;;;;5026040;28;20562;-88
2023/01/20 17:57:43;;;;;;;17.80;10.20;;;;;;;;;;5014075;28;20603;-88
2023/01/20 18:00:47;;;;;;;16.83;9.83;;;;;;;;;;5013785;28;20559;-88
2023/01/20 18:03:54;;;;;;;14.93;9.97;;;;;;;;;;5025408;28;20548;-88
2023/01/20 18:07:00;;;;;;;15.00;10.40;;;;;;;;;;5013594;28;20548;-88
2023/01/20 18:10:04;;;;;;;17.33;9.90;;;;;;;;;;5003188;28;21118;-88
2023/01/20 18:13:08;;;;;;;18.03;10.83;;;;;;;;;;5024585;28;20627;-88
2023/01/20 18:16:15;;;;;;;16.57;10.17;;;;;;;;;;5013918;28;20563;-88
2023/01/20 18:19:19;;;;;;;17.30;10.90;;;;;;;;;;5013476;28;20559;-88
2023/01/20 18:22:23;;;;;;;17.87;11.83;;;;;;;;;;5002759;28;20630;-88
2023/01/20 18:25:28;;;;;;;26.47;13.60;;;;;;;;;;5024414;28;20563;-88
2023/01/20 18:28:33;;;;;;;26.60;15.30;;;;;;;;;;5014179;28;20547;-88
2023/01/20 18:31:37;;;;;;;22.87;13.47;;;;;;;;;;5013102;28;21231;-88
2023/01/20 18:34:41;;;;;;;22.57;14.23;;;;;;;;;;5002169;28;20559;-88
2023/01/20 18:37:46;;;;;;;22.60;13.87;;;;;;;;;;5025152;28;20970;-88
2023/01/20 18:40:50;;;;;;;25.67;13.70;;;;;;;;;;5013089;28;21122;-88